»·PEaware :: N35491 KSNA-KCRQ

N35491 :: KSNA-KCRQ

FLIGHT INFORMATION

Flight Status: Arrived
Operator: Privately registered:
United States
More flights under this callsign
Pilot: Christopher S. (25427)
Aircraft: CESSNA 172 SKYHAWK
(C172)
More flights by this aircraft type
Origin: KSNA John Wayne-Orange Co
United States
Destination: KCRQ McClellan-Palomar
United States
More flights between these airports :: More routes between these airports
Route: V23 OCN
File this flight plan on PilotEdge
Remarks:
Altitude:
(Current/Filed)
5,000ft
Speed:
(Current/Filed)
110kts
Departed: 12-Feb-20 05:45 PM
Arrived: 12-Feb-20 06:25 PM
Distance/Time
Traveled:
44nm/0:40
Distance/Time
To Go:
Arrived

Flight Plot

Page will automatically refresh every two minutes.


Map Options




Map Legend


Flown Route
Filed Route
Departure Airport
Arrival Airport
Navaid (VOR, NDB)
Fix

Horizontal Profiles

Position Reports

Time Latitude Longitude Heading Altitude Ground
Speed
12-Feb-20 17:31 33.672386 -117.873096 28 60ft 0kts
12-Feb-20 17:32 33.672386 -117.873096 28 60ft 0kts
12-Feb-20 17:33 33.672386 -117.873096 28 60ft 0kts
12-Feb-20 17:34 33.672386 -117.873096 28 60ft 0kts
12-Feb-20 17:35 33.672386 -117.873096 28 60ft 0kts
12-Feb-20 17:36 33.672386 -117.873096 28 60ft 0kts
12-Feb-20 17:37 33.672386 -117.873096 28 60ft 0kts
12-Feb-20 17:38 33.672386 -117.873096 28 60ft 0kts
12-Feb-20 17:39 33.672386 -117.873096 28 60ft 0kts
12-Feb-20 17:40 33.672283 -117.872660 95 60ft 8kts
12-Feb-20 17:41 33.677229 -117.869337 27 60ft 29kts
12-Feb-20 17:42 33.681218 -117.866504 104 60ft 0kts
12-Feb-20 17:43 33.681218 -117.866504 104 60ft 0kts
12-Feb-20 17:44 33.678036 -117.867344 208 60ft 62kts
12-Feb-20 17:45 33.659301 -117.875236 189 989ft 73kts
12-Feb-20 17:46 33.638811 -117.877702 187 1878ft 78kts
12-Feb-20 17:47 33.617993 -117.879923 191 2779ft 73kts
12-Feb-20 17:48 33.601785 -117.864824 117 3602ft 92kts
12-Feb-20 17:49 33.591314 -117.837205 115 4466ft 91kts
12-Feb-20 17:50 33.575268 -117.812310 141 5033ft 107kts
12-Feb-20 17:51 33.552055 -117.783296 138 4940ft 123kts
12-Feb-20 17:52 33.528835 -117.754114 135 5012ft 124kts
12-Feb-20 17:53 33.505151 -117.723979 136 5014ft 124kts
12-Feb-20 17:54 33.481847 -117.693301 135 5017ft 124kts
12-Feb-20 17:55 33.458334 -117.663186 134 5032ft 124kts
12-Feb-20 17:56 33.434903 -117.632939 133 5046ft 123kts
12-Feb-20 17:57 33.411177 -117.603299 140 5087ft 121kts
12-Feb-20 17:58 33.384909 -117.576170 141 5023ft 126kts
12-Feb-20 17:59 33.359624 -117.547164 136 4995ft 127kts
12-Feb-20 18:00 33.334640 -117.518258 137 5006ft 125kts
12-Feb-20 18:01 33.310051 -117.488850 136 4992ft 127kts
12-Feb-20 18:02 33.285139 -117.460563 138 5039ft 127kts
12-Feb-20 18:03 33.261223 -117.429603 136 5050ft 124kts
12-Feb-20 18:04 33.236002 -117.401248 110 5063ft 126kts
12-Feb-20 18:05 33.233419 -117.358525 93 5018ft 129kts
12-Feb-20 18:06 33.230654 -117.315606 93 4955ft 127kts
12-Feb-20 18:07 33.228473 -117.274272 92 4989ft 121kts
12-Feb-20 18:08 33.226237 -117.233102 93 4991ft 119kts
12-Feb-20 18:09 33.224320 -117.193458 93 5024ft 122kts
12-Feb-20 18:10 33.222180 -117.152103 93 4998ft 122kts
12-Feb-20 18:11 33.219747 -117.112142 94 4888ft 128kts
12-Feb-20 18:12 33.218375 -117.069715 90 4162ft 124kts
12-Feb-20 18:13 33.202239 -117.042378 173 3954ft 115kts
12-Feb-20 18:14 33.174134 -117.048243 223 3642ft 107kts
12-Feb-20 18:15 33.161058 -117.076730 255 3319ft 87kts
12-Feb-20 18:16 33.156612 -117.101389 253 3299ft 79kts
12-Feb-20 18:17 33.151640 -117.128406 260 3000ft 83kts
12-Feb-20 18:18 33.148348 -117.156465 260 2529ft 86kts
12-Feb-20 18:19 33.143498 -117.181140 258 1981ft 74kts
12-Feb-20 18:20 33.140329 -117.205358 262 1495ft 73kts
12-Feb-20 18:21 33.136510 -117.229324 259 1161ft 73kts
12-Feb-20 18:22 33.132665 -117.253423 258 768ft 73kts
12-Feb-20 18:23 33.128934 -117.275885 257 340ft 53kts
12-Feb-20 18:24 33.127477 -117.280073 229 335ft 0kts

Navigation Log

Ident Type
Flight plan parsing failed, navigation log unavailable